sensor_id;sensor_type;location;lat;lon;timestamp;temperature;humidity
42365;DHT22;28498;54.400;18.566;2023-06-14T00:02:04;13.50;99.90
42365;DHT22;28498;54.400;18.566;2023-06-14T00:04:35;13.50;99.90
42365;DHT22;28498;54.400;18.566;2023-06-14T00:07:03;13.50;99.90
42365;DHT22;28498;54.400;18.566;2023-06-14T00:09:30;13.40;99.90
42365;DHT22;28498;54.400;18.566;2023-06-14T00:11:57;13.40;1.00
42365;DHT22;28498;54.400;18.566;2023-06-14T00:14:24;13.50;1.00
42365;DHT22;28498;54.400;18.566;2023-06-14T00:16:51;13.50;1.00
42365;DHT22;28498;54.400;18.566;2023-06-14T00:19:19;13.50;1.00
42365;DHT22;28498;54.400;18.566;2023-06-14T00:21:47;13.40;99.90
42365;DHT22;28498;54.400;18.566;2023-06-14T00:24:15;13.40;99.90
42365;DHT22;28498;54.400;18.566;2023-06-14T00:26:42;13.40;99.90
42365;DHT22;28498;54.400;18.566;2023-06-14T00:29:09;13.50;99.90
42365;DHT22;28498;54.400;18.566;2023-06-14T00:31:36;13.50;1.00
42365;DHT22;28498;54.400;18.566;2023-06-14T00:34:03;13.40;1.00
42365;DHT22;28498;54.400;18.566;2023-06-14T00:36:31;13.40;68.30
42365;DHT22;28498;54.400;18.566;2023-06-14T00:38:58;13.30;99.90
42365;DHT22;28498;54.400;18.566;2023-06-14T00:41:25;13.30;99.90
42365;DHT22;28498;54.400;18.566;2023-06-14T00:43:52;13.20;99.90
42365;DHT22;28498;54.400;18.566;2023-06-14T00:46:19;13.30;99.90
42365;DHT22;28498;54.400;18.566;2023-06-14T00:48:49;13.30;99.90
42365;DHT22;28498;54.400;18.566;2023-06-14T00:51:16;13.40;99.90
42365;DHT22;28498;54.400;18.566;2023-06-14T00:53:44;13.30;99.90
42365;DHT22;28498;54.400;18.566;2023-06-14T00:56:14;13.30;99.90
42365;DHT22;28498;54.400;18.566;2023-06-14T00:58:41;13.40;99.90
42365;DHT22;28498;54.400;18.566;2023-06-14T01:01:10;13.40;99.90
42365;DHT22;28498;54.400;18.566;2023-06-14T01:03:37;13.50;99.90
42365;DHT22;28498;54.400;18.566;2023-06-14T01:06:23;13.50;99.90
42365;DHT22;28498;54.400;18.566;2023-06-14T01:09:15;13.60;99.90
42365;DHT22;28498;54.400;18.566;2023-06-14T01:12:13;13.60;99.90
42365;DHT22;28498;54.400;18.566;2023-06-14T01:14:42;13.70;99.90
42365;DHT22;28498;54.400;18.566;2023-06-14T01:17:10;13.80;99.90
42365;DHT22;28498;54.400;18.566;2023-06-14T01:19:44;13.80;99.90
42365;DHT22;28498;54.400;18.566;2023-06-14T01:22:12;13.80;99.90
42365;DHT22;28498;54.400;18.566;2023-06-14T01:24:39;13.70;99.90
42365;DHT22;28498;54.400;18.566;2023-06-14T01:27:12;13.70;99.90
42365;DHT22;28498;54.400;18.566;2023-06-14T01:29:40;13.60;99.90
42365;DHT22;28498;54.400;18.566;2023-06-14T01:32:12;13.60;99.90
42365;DHT22;28498;54.400;18.566;2023-06-14T01:34:40;13.60;99.90
42365;DHT22;28498;54.400;18.566;2023-06-14T01:37:08;13.50;99.90
42365;DHT22;28498;54.400;18.566;2023-06-14T01:39:35;13.50;99.90
42365;DHT22;28498;54.400;18.566;2023-06-14T01:42:04;13.50;99.90
42365;DHT22;28498;54.400;18.566;2023-06-14T01:44:31;13.50;99.90
42365;DHT22;28498;54.400;18.566;2023-06-14T01:46:59;13.40;99.90
42365;DHT22;28498;54.400;18.566;2023-06-14T01:49:26;13.30;99.90
42365;DHT22;28498;54.400;18.566;2023-06-14T01:51:54;13.30;99.90
42365;DHT22;28498;54.400;18.566;2023-06-14T01:54:21;13.20;1.00
42365;DHT22;28498;54.400;18.566;2023-06-14T01:56:48;13.20;1.00
42365;DHT22;28498;54.400;18.566;2023-06-14T01:59:15;13.10;1.00
42365;DHT22;28498;54.400;18.566;2023-06-14T02:01:42;13.10;1.00
42365;DHT22;28498;54.400;18.566;2023-06-14T02:04:09;13.00;1.00
42365;DHT22;28498;54.400;18.566;2023-06-14T02:06:37;13.00;1.00
42365;DHT22;28498;54.400;18.566;2023-06-14T02:09:04;13.00;1.00
42365;DHT22;28498;54.400;18.566;2023-06-14T02:11:31;12.90;1.00
42365;DHT22;28498;54.400;18.566;2023-06-14T02:13:58;12.90;1.00
42365;DHT22;28498;54.400;18.566;2023-06-14T02:16:27;12.90;1.00
42365;DHT22;28498;54.400;18.566;2023-06-14T02:18:56;13.00;1.00
42365;DHT22;28498;54.400;18.566;2023-06-14T02:21:23;13.10;1.00
42365;DHT22;28498;54.400;18.566;2023-06-14T02:23:51;13.20;1.00
42365;DHT22;28498;54.400;18.566;2023-06-14T02:26:18;13.30;1.00
42365;DHT22;28498;54.400;18.566;2023-06-14T02:28:45;13.30;1.00
42365;DHT22;28498;54.400;18.566;2023-06-14T02:31:12;13.50;1.00
42365;DHT22;28498;54.400;18.566;2023-06-14T02:33:40;13.60;1.00
42365;DHT22;28498;54.400;18.566;2023-06-14T02:36:07;13.70;1.00
42365;DHT22;28498;54.400;18.566;2023-06-14T02:38:34;13.80;1.00
42365;DHT22;28498;54.400;18.566;2023-06-14T02:41:01;13.90;1.00
42365;DHT22;28498;54.400;18.566;2023-06-14T02:43:29;14.00;1.00
42365;DHT22;28498;54.400;18.566;2023-06-14T02:45:56;14.20;1.00
42365;DHT22;28498;54.400;18.566;2023-06-14T02:48:23;14.30;1.00
42365;DHT22;28498;54.400;18.566;2023-06-14T02:50:51;14.40;1.00
42365;DHT22;28498;54.400;18.566;2023-06-14T02:53:18;14.50;1.00
42365;DHT22;28498;54.400;18.566;2023-06-14T02:55:45;14.60;1.00
42365;DHT22;28498;54.400;18.566;2023-06-14T02:58:14;14.70;99.90
42365;DHT22;28498;54.400;18.566;2023-06-14T03:00:41;14.90;99.90
42365;DHT22;28498;54.400;18.566;2023-06-14T03:03:09;15.00;99.90
42365;DHT22;28498;54.400;18.566;2023-06-14T03:05:44;15.10;99.90
42365;DHT22;28498;54.400;18.566;2023-06-14T03:08:15;15.30;99.90
42365;DHT22;28498;54.400;18.566;2023-06-14T03:10:43;15.30;99.90
42365;DHT22;28498;54.400;18.566;2023-06-14T03:13:11;15.40;99.90
42365;DHT22;28498;54.400;18.566;2023-06-14T03:15:39;15.40;99.90
42365;DHT22;28498;54.400;18.566;2023-06-14T03:18:08;15.50;99.90
42365;DHT22;28498;54.400;18.566;2023-06-14T03:20:36;15.50;99.90
42365;DHT22;28498;54.400;18.566;2023-06-14T03:23:04;15.50;99.90
42365;DHT22;28498;54.400;18.566;2023-06-14T03:25:31;15.60;99.90
42365;DHT22;28498;54.400;18.566;2023-06-14T03:28:02;15.60;99.90
42365;DHT22;28498;54.400;18.566;2023-06-14T03:30:30;15.60;99.90
42365;DHT22;28498;54.400;18.566;2023-06-14T03:32:58;15.60;99.90
42365;DHT22;28498;54.400;18.566;2023-06-14T03:35:28;15.70;99.90
42365;DHT22;28498;54.400;18.566;2023-06-14T03:37:56;15.70;99.90
42365;DHT22;28498;54.400;18.566;2023-06-14T03:40:23;15.80;99.90
42365;DHT22;28498;54.400;18.566;2023-06-14T03:42:56;15.80;99.90
42365;DHT22;28498;54.400;18.566;2023-06-14T03:45:23;15.80;99.90
42365;DHT22;28498;54.400;18.566;2023-06-14T03:47:50;15.90;99.90
42365;DHT22;28498;54.400;18.566;2023-06-14T03:50:18;16.10;99.90
42365;DHT22;28498;54.400;18.566;2023-06-14T03:52:50;16.20;99.90
42365;DHT22;28498;54.400;18.566;2023-06-14T03:55:17;16.30;93.70
42365;DHT22;28498;54.400;18.566;2023-06-14T03:57:47;16.60;1.00
42365;DHT22;28498;54.400;18.566;2023-06-14T04:00:14;16.90;99.90
42365;DHT22;28498;54.400;18.566;2023-06-14T04:02:42;17.00;99.90
42365;DHT22;28498;54.400;18.566;2023-06-14T04:05:11;16.80;99.90
42365;DHT22;28498;54.400;18.566;2023-06-14T04:07:38;16.80;99.90
42365;DHT22;28498;54.400;18.566;2023-06-14T04:10:12;16.80;35.90
42365;DHT22;28498;54.400;18.566;2023-06-14T04:12:40;16.60;99.90
42365;DHT22;28498;54.400;18.566;2023-06-14T04:15:10;16.60;99.90
42365;DHT22;28498;54.400;18.566;2023-06-14T04:17:47;16.70;99.90
42365;DHT22;28498;54.400;18.566;2023-06-14T04:20:14;16.70;99.90
42365;DHT22;28498;54.400;18.566;2023-06-14T04:22:42;16.90;97.10
42365;DHT22;28498;54.400;18.566;2023-06-14T04:25:10;16.90;99.90
42365;DHT22;28498;54.400;18.566;2023-06-14T04:27:39;17.10;1.00
42365;DHT22;28498;54.400;18.566;2023-06-14T04:30:07;17.10;25.10
42365;DHT22;28498;54.400;18.566;2023-06-14T04:32:34;17.20;94.30
42365;DHT22;28498;54.400;18.566;2023-06-14T04:35:07;17.30;99.90
42365;DHT22;28498;54.400;18.566;2023-06-14T04:37:34;17.30;25.80
42365;DHT22;28498;54.400;18.566;2023-06-14T04:40:02;17.50;99.90
42365;DHT22;28498;54.400;18.566;2023-06-14T04:42:31;17.60;99.90
42365;DHT22;28498;54.400;18.566;2023-06-14T04:44:59;17.90;45.90
42365;DHT22;28498;54.400;18.566;2023-06-14T04:47:26;18.00;99.90
42365;DHT22;28498;54.400;18.566;2023-06-14T04:49:57;18.20;99.90
42365;DHT22;28498;54.400;18.566;2023-06-14T04:52:24;18.40;1.00
42365;DHT22;28498;54.400;18.566;2023-06-14T04:54:53;18.70;99.90
42365;DHT22;28498;54.400;18.566;2023-06-14T04:57:21;18.90;27.10
42365;DHT22;28498;54.400;18.566;2023-06-14T04:59:49;18.80;1.00
42365;DHT22;28498;54.400;18.566;2023-06-14T05:02:23;18.80;1.00
42365;DHT22;28498;54.400;18.566;2023-06-14T05:04:51;18.50;1.00
42365;DHT22;28498;54.400;18.566;2023-06-14T05:07:18;18.70;1.00
42365;DHT22;28498;54.400;18.566;2023-06-14T05:09:45;18.90;1.00
42365;DHT22;28498;54.400;18.566;2023-06-14T05:12:12;19.10;99.90
42365;DHT22;28498;54.400;18.566;2023-06-14T05:14:39;19.20;99.90
42365;DHT22;28498;54.400;18.566;2023-06-14T05:17:07;19.10;99.90
42365;DHT22;28498;54.400;18.566;2023-06-14T05:19:34;19.20;99.90
42365;DHT22;28498;54.400;18.566;2023-06-14T05:22:01;19.30;99.90
42365;DHT22;28498;54.400;18.566;2023-06-14T05:24:29;19.40;99.90
42365;DHT22;28498;54.400;18.566;2023-06-14T05:26:57;19.70;80.00
42365;DHT22;28498;54.400;18.566;2023-06-14T05:29:24;19.60;1.00
42365;DHT22;28498;54.400;18.566;2023-06-14T05:31:56;19.50;1.00
42365;DHT22;28498;54.400;18.566;2023-06-14T05:34:23;19.30;1.00
42365;DHT22;28498;54.400;18.566;2023-06-14T05:36:50;18.90;1.00
42365;DHT22;28498;54.400;18.566;2023-06-14T05:39:18;18.80;1.00
42365;DHT22;28498;54.400;18.566;2023-06-14T05:41:45;18.80;1.00
42365;DHT22;28498;54.400;18.566;2023-06-14T05:44:14;18.80;1.00
42365;DHT22;28498;54.400;18.566;2023-06-14T05:46:41;19.00;1.00
42365;DHT22;28498;54.400;18.566;2023-06-14T05:49:08;18.90;1.00
42365;DHT22;28498;54.400;18.566;2023-06-14T05:51:35;19.10;1.00
42365;DHT22;28498;54.400;18.566;2023-06-14T05:54:03;19.20;1.00
42365;DHT22;28498;54.400;18.566;2023-06-14T05:56:30;19.30;1.00
42365;DHT22;28498;54.400;18.566;2023-06-14T05:58:57;19.50;1.00
42365;DHT22;28498;54.400;18.566;2023-06-14T06:01:24;19.50;1.00
42365;DHT22;28498;54.400;18.566;2023-06-14T06:03:52;19.50;1.00
42365;DHT22;28498;54.400;18.566;2023-06-14T06:06:19;19.60;99.90
42365;DHT22;28498;54.400;18.566;2023-06-14T06:08:46;19.70;99.90
42365;DHT22;28498;54.400;18.566;2023-06-14T06:11:13;19.90;99.90
42365;DHT22;28498;54.400;18.566;2023-06-14T06:13:41;19.90;99.90
42365;DHT22;28498;54.400;18.566;2023-06-14T06:16:08;19.80;99.90
42365;DHT22;28498;54.400;18.566;2023-06-14T06:18:35;19.80;99.90
42365;DHT22;28498;54.400;18.566;2023-06-14T06:21:04;19.90;99.90
42365;DHT22;28498;54.400;18.566;2023-06-14T06:23:31;19.80;99.90
42365;DHT22;28498;54.400;18.566;2023-06-14T06:25:58;19.70;99.90
42365;DHT22;28498;54.400;18.566;2023-06-14T06:28:25;19.70;99.90
42365;DHT22;28498;54.400;18.566;2023-06-14T06:30:53;19.70;99.90
42365;DHT22;28498;54.400;18.566;2023-06-14T06:33:21;19.60;99.90
42365;DHT22;28498;54.400;18.566;2023-06-14T06:35:48;19.60;99.90
42365;DHT22;28498;54.400;18.566;2023-06-14T06:38:16;19.90;99.90
42365;DHT22;28498;54.400;18.566;2023-06-14T06:40:45;20.20;99.90
42365;DHT22;28498;54.400;18.566;2023-06-14T06:43:12;20.40;99.90
42365;DHT22;28498;54.400;18.566;2023-06-14T06:45:43;20.50;99.90
42365;DHT22;28498;54.400;18.566;2023-06-14T06:48:11;20.40;99.90
42365;DHT22;28498;54.400;18.566;2023-06-14T06:50:38;20.40;57.20
42365;DHT22;28498;54.400;18.566;2023-06-14T06:53:05;20.50;53.70
42365;DHT22;28498;54.400;18.566;2023-06-14T06:55:33;20.50;19.60
42365;DHT22;28498;54.400;18.566;2023-06-14T06:58:00;20.70;1.00
42365;DHT22;28498;54.400;18.566;2023-06-14T07:00:28;20.60;2.10
42365;DHT22;28498;54.400;18.566;2023-06-14T07:02:55;20.50;1.00
42365;DHT22;28498;54.400;18.566;2023-06-14T07:05:24;20.60;12.10
42365;DHT22;28498;54.400;18.566;2023-06-14T07:07:51;21.00;1.00
42365;DHT22;28498;54.400;18.566;2023-06-14T07:10:19;21.10;1.00
42365;DHT22;28498;54.400;18.566;2023-06-14T07:12:46;21.20;1.00
42365;DHT22;28498;54.400;18.566;2023-06-14T07:15:14;21.40;1.00
42365;DHT22;28498;54.400;18.566;2023-06-14T07:17:41;21.10;1.00
42365;DHT22;28498;54.400;18.566;2023-06-14T07:20:09;21.00;1.00
42365;DHT22;28498;54.400;18.566;2023-06-14T07:22:41;20.90;1.00
42365;DHT22;28498;54.400;18.566;2023-06-14T07:25:10;21.00;1.00
42365;DHT22;28498;54.400;18.566;2023-06-14T07:27:43;21.00;1.00
42365;DHT22;28498;54.400;18.566;2023-06-14T07:30:11;21.20;1.00
42365;DHT22;28498;54.400;18.566;2023-06-14T07:32:38;21.10;1.00
42365;DHT22;28498;54.400;18.566;2023-06-14T07:35:06;21.20;1.00
42365;DHT22;28498;54.400;18.566;2023-06-14T07:37:33;21.30;1.00
42365;DHT22;28498;54.400;18.566;2023-06-14T07:40:00;21.30;1.00
42365;DHT22;28498;54.400;18.566;2023-06-14T07:42:29;21.60;1.00
42365;DHT22;28498;54.400;18.566;2023-06-14T07:44:57;21.90;1.00
42365;DHT22;28498;54.400;18.566;2023-06-14T07:47:24;21.60;1.00
42365;DHT22;28498;54.400;18.566;2023-06-14T07:49:52;21.80;1.00
42365;DHT22;28498;54.400;18.566;2023-06-14T07:52:19;21.80;1.00
42365;DHT22;28498;54.400;18.566;2023-06-14T07:54:47;22.00;1.00
42365;DHT22;28498;54.400;18.566;2023-06-14T07:57:14;21.80;1.00
42365;DHT22;28498;54.400;18.566;2023-06-14T07:59:41;21.80;1.00
42365;DHT22;28498;54.400;18.566;2023-06-14T08:02:08;21.70;1.00
42365;DHT22;28498;54.400;18.566;2023-06-14T08:04:35;21.70;1.00
42365;DHT22;28498;54.400;18.566;2023-06-14T08:07:03;21.70;1.00
42365;DHT22;28498;54.400;18.566;2023-06-14T08:09:33;21.70;1.00
42365;DHT22;28498;54.400;18.566;2023-06-14T08:12:00;22.00;1.00
42365;DHT22;28498;54.400;18.566;2023-06-14T08:14:27;22.10;1.00
42365;DHT22;28498;54.400;18.566;2023-06-14T08:16:55;21.90;1.00
42365;DHT22;28498;54.400;18.566;2023-06-14T08:19:22;22.10;1.00
42365;DHT22;28498;54.400;18.566;2023-06-14T08:21:49;22.10;1.00
42365;DHT22;28498;54.400;18.566;2023-06-14T08:24:17;21.80;1.00
42365;DHT22;28498;54.400;18.566;2023-06-14T08:26:45;21.70;1.00
42365;DHT22;28498;54.400;18.566;2023-06-14T08:29:13;21.80;1.00
42365;DHT22;28498;54.400;18.566;2023-06-14T08:31:40;21.90;1.00
42365;DHT22;28498;54.400;18.566;2023-06-14T08:34:07;22.00;99.90
42365;DHT22;28498;54.400;18.566;2023-06-14T08:36:35;21.90;99.90
42365;DHT22;28498;54.400;18.566;2023-06-14T08:39:02;22.30;99.90
42365;DHT22;28498;54.400;18.566;2023-06-14T08:41:30;22.30;99.90
42365;DHT22;28498;54.400;18.566;2023-06-14T08:43:57;21.90;99.90
42365;DHT22;28498;54.400;18.566;2023-06-14T08:46:26;21.80;99.90
42365;DHT22;28498;54.400;18.566;2023-06-14T08:48:55;21.70;99.90
42365;DHT22;28498;54.400;18.566;2023-06-14T08:51:25;21.70;99.90
42365;DHT22;28498;54.400;18.566;2023-06-14T08:53:55;21.30;99.90
42365;DHT22;28498;54.400;18.566;2023-06-14T08:56:26;21.40;99.90
42365;DHT22;28498;54.400;18.566;2023-06-14T08:58:55;21.40;99.90
42365;DHT22;28498;54.400;18.566;2023-06-14T09:01:23;21.40;99.90
42365;DHT22;28498;54.400;18.566;2023-06-14T09:03:51;21.40;99.90
42365;DHT22;28498;54.400;18.566;2023-06-14T09:06:19;21.40;99.90
42365;DHT22;28498;54.400;18.566;2023-06-14T09:08:49;21.50;99.90
42365;DHT22;28498;54.400;18.566;2023-06-14T09:11:18;21.50;99.90
42365;DHT22;28498;54.400;18.566;2023-06-14T09:13:46;21.40;99.90
42365;DHT22;28498;54.400;18.566;2023-06-14T09:16:14;21.10;99.90
42365;DHT22;28498;54.400;18.566;2023-06-14T09:18:46;21.30;99.90
42365;DHT22;28498;54.400;18.566;2023-06-14T09:21:17;21.30;99.90
42365;DHT22;28498;54.400;18.566;2023-06-14T09:23:46;21.40;99.90
42365;DHT22;28498;54.400;18.566;2023-06-14T09:26:18;21.30;99.90
42365;DHT22;28498;54.400;18.566;2023-06-14T09:28:48;21.60;99.90
42365;DHT22;28498;54.400;18.566;2023-06-14T09:31:17;21.90;99.90
42365;DHT22;28498;54.400;18.566;2023-06-14T09:33:46;22.10;99.90
42365;DHT22;28498;54.400;18.566;2023-06-14T09:36:25;21.90;99.90
42365;DHT22;28498;54.400;18.566;2023-06-14T09:41:33;21.90;99.90
42365;DHT22;28498;54.400;18.566;2023-06-14T09:44:02;21.80;99.90
42365;DHT22;28498;54.400;18.566;2023-06-14T09:46:35;21.80;99.90
42365;DHT22;28498;54.400;18.566;2023-06-14T09:49:03;21.70;99.90
42365;DHT22;28498;54.400;18.566;2023-06-14T09:51:31;21.80;99.90
42365;DHT22;28498;54.400;18.566;2023-06-14T09:54:03;21.90;99.90
42365;DHT22;28498;54.400;18.566;2023-06-14T09:56:45;22.10;99.90
42365;DHT22;28498;54.400;18.566;2023-06-14T09:59:14;22.30;99.90
42365;DHT22;28498;54.400;18.566;2023-06-14T10:01:44;22.20;99.90
42365;DHT22;28498;54.400;18.566;2023-06-14T10:04:13;22.20;99.90
42365;DHT22;28498;54.400;18.566;2023-06-14T10:06:45;22.30;99.90
42365;DHT22;28498;54.400;18.566;2023-06-14T10:09:14;21.90;99.90
42365;DHT22;28498;54.400;18.566;2023-06-14T10:11:41;22.00;99.90
42365;DHT22;28498;54.400;18.566;2023-06-14T10:14:12;22.40;99.90
42365;DHT22;28498;54.400;18.566;2023-06-14T10:17:04;22.30;99.90
42365;DHT22;28498;54.400;18.566;2023-06-14T10:19:45;22.00;99.90
42365;DHT22;28498;54.400;18.566;2023-06-14T10:22:18;22.00;99.90
42365;DHT22;28498;54.400;18.566;2023-06-14T10:24:46;22.20;99.90
42365;DHT22;28498;54.400;18.566;2023-06-14T10:27:15;22.20;99.90
42365;DHT22;28498;54.400;18.566;2023-06-14T10:32:21;22.50;99.90
42365;DHT22;28498;54.400;18.566;2023-06-14T10:35:15;22.50;99.90
42365;DHT22;28498;54.400;18.566;2023-06-14T10:37:46;22.30;99.90
42365;DHT22;28498;54.400;18.566;2023-06-14T10:40:34;22.60;99.90
42365;DHT22;28498;54.400;18.566;2023-06-14T10:43:21;22.90;99.90
42365;DHT22;28498;54.400;18.566;2023-06-14T10:46:14;23.00;99.90
42365;DHT22;28498;54.400;18.566;2023-06-14T10:48:43;23.30;99.90
42365;DHT22;28498;54.400;18.566;2023-06-14T10:51:18;23.40;99.90
42365;DHT22;28498;54.400;18.566;2023-06-14T10:53:48;23.40;99.90
42365;DHT22;28498;54.400;18.566;2023-06-14T10:56:29;23.40;99.90
42365;DHT22;28498;54.400;18.566;2023-06-14T10:58:57;23.70;99.90
42365;DHT22;28498;54.400;18.566;2023-06-14T11:01:36;23.50;99.90
42365;DHT22;28498;54.400;18.566;2023-06-14T11:04:10;23.50;99.90
42365;DHT22;28498;54.400;18.566;2023-06-14T11:06:49;23.50;99.90
42365;DHT22;28498;54.400;18.566;2023-06-14T11:09:31;23.60;99.90
42365;DHT22;28498;54.400;18.566;2023-06-14T11:12:08;23.60;99.90
42365;DHT22;28498;54.400;18.566;2023-06-14T11:14:38;24.10;99.90
42365;DHT22;28498;54.400;18.566;2023-06-14T11:17:05;24.10;99.90
42365;DHT22;28498;54.400;18.566;2023-06-14T11:19:33;23.40;99.90
42365;DHT22;28498;54.400;18.566;2023-06-14T11:22:00;23.40;99.90
42365;DHT22;28498;54.400;18.566;2023-06-14T11:24:27;23.00;99.90
42365;DHT22;28498;54.400;18.566;2023-06-14T11:26:55;22.70;99.90
42365;DHT22;28498;54.400;18.566;2023-06-14T11:29:24;22.70;99.90
42365;DHT22;28498;54.400;18.566;2023-06-14T11:31:51;22.90;99.90
42365;DHT22;28498;54.400;18.566;2023-06-14T11:34:19;22.80;99.90
42365;DHT22;28498;54.400;18.566;2023-06-14T11:36:46;22.70;99.90
42365;DHT22;28498;54.400;18.566;2023-06-14T11:39:14;23.10;99.90
42365;DHT22;28498;54.400;18.566;2023-06-14T11:41:45;23.20;99.90
42365;DHT22;28498;54.400;18.566;2023-06-14T11:44:12;23.20;99.90
42365;DHT22;28498;54.400;18.566;2023-06-14T11:46:40;23.70;99.90
42365;DHT22;28498;54.400;18.566;2023-06-14T11:49:07;23.60;99.90
42365;DHT22;28498;54.400;18.566;2023-06-14T11:51:36;23.30;99.90
42365;DHT22;28498;54.400;18.566;2023-06-14T11:54:05;23.50;99.90
42365;DHT22;28498;54.400;18.566;2023-06-14T11:56:33;23.00;99.90
42365;DHT22;28498;54.400;18.566;2023-06-14T11:59:02;22.90;99.90
42365;DHT22;28498;54.400;18.566;2023-06-14T12:01:30;22.80;99.90
42365;DHT22;28498;54.400;18.566;2023-06-14T12:03:59;22.70;99.90
42365;DHT22;28498;54.400;18.566;2023-06-14T12:06:28;23.10;99.90
42365;DHT22;28498;54.400;18.566;2023-06-14T12:08:59;22.90;99.90
42365;DHT22;28498;54.400;18.566;2023-06-14T12:11:34;22.80;99.90
42365;DHT22;28498;54.400;18.566;2023-06-14T12:14:06;23.00;99.90
42365;DHT22;28498;54.400;18.566;2023-06-14T12:16:34;22.70;99.90
42365;DHT22;28498;54.400;18.566;2023-06-14T12:19:09;23.00;99.90
42365;DHT22;28498;54.400;18.566;2023-06-14T12:21:39;22.90;99.90
42365;DHT22;28498;54.400;18.566;2023-06-14T12:24:12;22.90;99.90
42365;DHT22;28498;54.400;18.566;2023-06-14T12:26:40;22.90;99.90
42365;DHT22;28498;54.400;18.566;2023-06-14T12:29:08;23.00;99.90
42365;DHT22;28498;54.400;18.566;2023-06-14T12:31:35;23.10;99.90
42365;DHT22;28498;54.400;18.566;2023-06-14T12:34:03;22.90;99.90
42365;DHT22;28498;54.400;18.566;2023-06-14T12:36:30;22.80;99.90
42365;DHT22;28498;54.400;18.566;2023-06-14T12:38:58;23.00;99.90
42365;DHT22;28498;54.400;18.566;2023-06-14T12:41:26;22.60;99.90
42365;DHT22;28498;54.400;18.566;2023-06-14T12:43:54;22.60;99.90
42365;DHT22;28498;54.400;18.566;2023-06-14T12:46:21;22.40;99.90
42365;DHT22;28498;54.400;18.566;2023-06-14T12:48:48;22.80;99.90
42365;DHT22;28498;54.400;18.566;2023-06-14T12:51:16;22.60;99.90
42365;DHT22;28498;54.400;18.566;2023-06-14T12:53:43;22.20;99.90
42365;DHT22;28498;54.400;18.566;2023-06-14T12:56:10;22.00;99.90
42365;DHT22;28498;54.400;18.566;2023-06-14T12:58:38;21.60;99.90
42365;DHT22;28498;54.400;18.566;2023-06-14T13:01:05;21.70;99.90
42365;DHT22;28498;54.400;18.566;2023-06-14T13:03:32;21.50;99.90
42365;DHT22;28498;54.400;18.566;2023-06-14T13:06:01;21.50;99.90
42365;DHT22;28498;54.400;18.566;2023-06-14T13:08:29;21.50;99.90
42365;DHT22;28498;54.400;18.566;2023-06-14T13:10:57;21.50;99.90
42365;DHT22;28498;54.400;18.566;2023-06-14T13:13:24;21.60;99.90
42365;DHT22;28498;54.400;18.566;2023-06-14T13:15:51;21.50;99.90
42365;DHT22;28498;54.400;18.566;2023-06-14T13:18:18;21.40;99.90
42365;DHT22;28498;54.400;18.566;2023-06-14T13:20:46;21.20;99.90
42365;DHT22;28498;54.400;18.566;2023-06-14T13:23:15;21.20;99.90
42365;DHT22;28498;54.400;18.566;2023-06-14T13:25:42;21.10;99.90
42365;DHT22;28498;54.400;18.566;2023-06-14T13:28:10;21.20;99.90
42365;DHT22;28498;54.400;18.566;2023-06-14T13:30:37;21.50;99.90
42365;DHT22;28498;54.400;18.566;2023-06-14T13:33:04;21.50;99.90
42365;DHT22;28498;54.400;18.566;2023-06-14T13:35:31;21.70;99.90
42365;DHT22;28498;54.400;18.566;2023-06-14T13:37:58;22.30;99.90
42365;DHT22;28498;54.400;18.566;2023-06-14T13:40:25;21.70;99.90
42365;DHT22;28498;54.400;18.566;2023-06-14T13:42:53;21.00;99.90
42365;DHT22;28498;54.400;18.566;2023-06-14T13:45:20;20.70;99.90
42365;DHT22;28498;54.400;18.566;2023-06-14T13:47:47;20.50;99.90
42365;DHT22;28498;54.400;18.566;2023-06-14T13:50:15;20.40;99.90
42365;DHT22;28498;54.400;18.566;2023-06-14T13:52:43;20.40;99.90
42365;DHT22;28498;54.400;18.566;2023-06-14T13:55:10;20.40;99.90
42365;DHT22;28498;54.400;18.566;2023-06-14T13:57:37;20.70;99.90
42365;DHT22;28498;54.400;18.566;2023-06-14T14:00:05;21.20;99.90
42365;DHT22;28498;54.400;18.566;2023-06-14T14:02:32;21.40;99.90
42365;DHT22;28498;54.400;18.566;2023-06-14T14:04:59;22.00;99.90
42365;DHT22;28498;54.400;18.566;2023-06-14T14:07:27;21.90;99.90
42365;DHT22;28498;54.400;18.566;2023-06-14T14:09:56;21.50;99.90
42365;DHT22;28498;54.400;18.566;2023-06-14T14:12:24;21.40;99.90
42365;DHT22;28498;54.400;18.566;2023-06-14T14:14:52;21.40;99.90
42365;DHT22;28498;54.400;18.566;2023-06-14T14:17:19;21.10;99.90
42365;DHT22;28498;54.400;18.566;2023-06-14T14:19:47;21.40;99.90
42365;DHT22;28498;54.400;18.566;2023-06-14T14:22:15;21.40;99.90
42365;DHT22;28498;54.400;18.566;2023-06-14T14:24:42;21.00;99.90
42365;DHT22;28498;54.400;18.566;2023-06-14T14:27:10;20.90;99.90
42365;DHT22;28498;54.400;18.566;2023-06-14T14:29:37;21.10;99.90
42365;DHT22;28498;54.400;18.566;2023-06-14T14:32:04;21.80;99.90
42365;DHT22;28498;54.400;18.566;2023-06-14T14:34:32;23.10;99.90
42365;DHT22;28498;54.400;18.566;2023-06-14T14:36:59;23.70;99.90
42365;DHT22;28498;54.400;18.566;2023-06-14T14:39:26;24.30;99.90
42365;DHT22;28498;54.400;18.566;2023-06-14T14:41:54;24.00;99.90
42365;DHT22;28498;54.400;18.566;2023-06-14T14:44:21;23.50;99.90
42365;DHT22;28498;54.400;18.566;2023-06-14T14:46:48;23.40;99.90
42365;DHT22;28498;54.400;18.566;2023-06-14T14:49:15;23.50;99.90
42365;DHT22;28498;54.400;18.566;2023-06-14T14:51:42;23.20;99.90
42365;DHT22;28498;54.400;18.566;2023-06-14T14:54:09;22.60;99.90
42365;DHT22;28498;54.400;18.566;2023-06-14T14:56:37;22.20;99.90
42365;DHT22;28498;54.400;18.566;2023-06-14T14:59:05;21.80;99.90
42365;DHT22;28498;54.400;18.566;2023-06-14T15:01:32;21.90;99.90
42365;DHT22;28498;54.400;18.566;2023-06-14T15:03:59;22.20;99.90
42365;DHT22;28498;54.400;18.566;2023-06-14T15:06:28;22.70;99.90
42365;DHT22;28498;54.400;18.566;2023-06-14T15:08:56;23.20;99.90
42365;DHT22;28498;54.400;18.566;2023-06-14T15:11:24;23.70;99.90
42365;DHT22;28498;54.400;18.566;2023-06-14T15:13:51;23.70;99.90
42365;DHT22;28498;54.400;18.566;2023-06-14T15:16:18;23.30;99.90
42365;DHT22;28498;54.400;18.566;2023-06-14T15:18:45;23.00;99.90
42365;DHT22;28498;54.400;18.566;2023-06-14T15:21:12;23.10;99.90
42365;DHT22;28498;54.400;18.566;2023-06-14T15:23:40;23.40;99.90
42365;DHT22;28498;54.400;18.566;2023-06-14T15:26:07;23.30;99.90
42365;DHT22;28498;54.400;18.566;2023-06-14T15:28:34;23.70;99.90
42365;DHT22;28498;54.400;18.566;2023-06-14T15:31:01;24.10;99.90
42365;DHT22;28498;54.400;18.566;2023-06-14T15:33:28;23.40;99.90
42365;DHT22;28498;54.400;18.566;2023-06-14T15:35:55;22.40;99.90